Aurora, Colorado
Current Conditions -  °F | °C
As of 5:58 PM on Friday 19 Dec 2014 (Local Time) from KBKF Reporting Station
Scattered Clouds Scattered Clouds  
Wind Chill: 23°   Ceiling: Unl
Heat Index: 32°   Visibility: 10mi
Dew Point: 16°   Wind: 10mph
Humidity: 52%   Direction: 180°S
Pressure: 30.02"   Gusts: NA
Location:  39.69°N, 104.86°W
Report Text: KBKF 200058Z 18009KT 10SM SCT200 00/M09 A3002 RMK AO2A SLP190 T10021090
Loading
Personal Weather Stations






























Interactive Weather Map New forecast layout! Learn more

10-Day Weather Forecast

Advertisements
Track Severe Weather on mobile